Walker, Iowa
Current Conditions -  °F | °C
As of 11:55 AM on Friday 24 Oct 2014 (Local Time) from KVTI Reporting Station
Haze Haze  
Wind Chill: 55°   Ceiling: 100
Heat Index: 55°   Visibility: 1mi
Dew Point: 54°   Wind: 13mph
Humidity: 96%   Direction: 180°S
Pressure: 29.98"   Gusts: 17mph
Location:  42.29°N, 91.78°W
Report Text: KVTI 241655Z AUTO 18011G15KT 1SM BR OVC001 13/12 A2998 RMK AO2 T01300123
Loading
Personal Weather Stations






























Interactive Weather Map
Tropical Storm Tracking
New forecast layout! Learn more

10-Day Weather Forecast

Advertisements
Track Severe Weather on mobile